Stone Mountain, GA (30088)

3:36 PM EDT on July 30, 2016 (GMT -0400)
MesoWest | | Change Station

Elev 921 ft 33.71 °N, 84.21 °W | Updated 46 minutes ago

Clear
Clear
80 °F
Feels Like 84 °F
N
6
Wind Variable Wind from West
Gusts 9.0 mph

Today
High -- | Low -- °F
--% Chance of Precip.
Yesterday
High -- | Low -- °F
Precip. -- in
Pressure 29.98 in
Visibility 10.0 miles
Clouds Clear
Heat Index 84 °F
Dew Point 73 °F
Humidity 80%
Rainfall in
Snow Depth Not available.
6:47 AM 8:38 PM
Waning Crescent, 11% visible
METAR KPDK 301853Z VRB03KT 10SM CLR 28/22 A3004 RMK AO2 SLP152 T02780222 $
Pressure 29.98 in
Visibility 10.0 miles
Clouds Clear
Heat Index 84 °F
Dew Point 73 °F
Humidity 80%
Rainfall in
Snow Depth Not available.
6:47 AM 8:38 PM
Waning Crescent, 11% visible
METAR KPDK 301853Z VRB03KT 10SM CLR 28/22 A3004 RMK AO2 SLP152 T02780222 $

10-Day Weather Forecast

Almanac

Astronomy

Jul. 30, 2016 Rise Set
Actual Time
Civil Twilight
Nautical Twilight
Astronomical Twilight
Moon
Length of Visible Light
Length of Day
Tomorrow will be .
, % of the Moon is Illuminated

Today's Extremes

State Highs State Lows

Community

WunderPhotos

Upload Photos

1,928,626 photos uploaded!

WunderBlog® & News

Nearby

Air Quality

  Air Quality AQ Index Pollutant
Not available.

Snow Depth

Station Depth Elevation

Earthquake Activity

City Distance Mag. Time & Date
Minimum magnitude displayed is 2.5.

Coastal Water Temperatures

Place Temperature

Stations

Nearby Weather Stations

Station Location Temp. Windchill Dew Point Humidity Wind Precip. Elev Updated Type
                   

Watches & Warnings

There are currently no watches in effect.